sensor_id;sensor_type;location;lat;lon;timestamp;P1;durP1;ratioP1;P2;durP2;ratioP2
13455;SDS011;6800;50.940;6.940;2023-07-16T00:02:37;3.97;;;2.97;;
13455;SDS011;6800;50.940;6.940;2023-07-16T00:06:39;3.70;;;2.17;;
13455;SDS011;6800;50.940;6.940;2023-07-16T00:10:40;5.05;;;4.18;;
13455;SDS011;6800;50.940;6.940;2023-07-16T00:14:42;5.22;;;4.15;;
13455;SDS011;6800;50.940;6.940;2023-07-16T00:18:44;5.85;;;5.25;;
13455;SDS011;6800;50.940;6.940;2023-07-16T00:22:46;6.97;;;4.45;;
13455;SDS011;6800;50.940;6.940;2023-07-16T00:26:47;3.85;;;2.45;;
13455;SDS011;6800;50.940;6.940;2023-07-16T00:30:49;4.43;;;3.25;;
13455;SDS011;6800;50.940;6.940;2023-07-16T00:34:50;8.00;;;7.18;;
13455;SDS011;6800;50.940;6.940;2023-07-16T00:38:52;4.90;;;3.40;;
13455;SDS011;6800;50.940;6.940;2023-07-16T00:42:53;6.82;;;2.97;;
13455;SDS011;6800;50.940;6.940;2023-07-16T00:46:54;3.53;;;2.55;;
13455;SDS011;6800;50.940;6.940;2023-07-16T00:50:56;3.95;;;2.58;;
13455;SDS011;6800;50.940;6.940;2023-07-16T00:54:58;5.60;;;2.20;;
13455;SDS011;6800;50.940;6.940;2023-07-16T00:59:00;6.35;;;4.13;;
13455;SDS011;6800;50.940;6.940;2023-07-16T01:03:05;2.90;;;2.50;;
13455;SDS011;6800;50.940;6.940;2023-07-16T01:07:11;4.00;;;2.47;;
13455;SDS011;6800;50.940;6.940;2023-07-16T01:11:14;6.10;;;3.33;;
13455;SDS011;6800;50.940;6.940;2023-07-16T01:15:16;4.38;;;2.80;;
13455;SDS011;6800;50.940;6.940;2023-07-16T01:19:18;3.97;;;2.47;;
13455;SDS011;6800;50.940;6.940;2023-07-16T01:23:26;3.60;;;2.22;;
13455;SDS011;6800;50.940;6.940;2023-07-16T01:27:50;4.55;;;2.55;;
13455;SDS011;6800;50.940;6.940;2023-07-16T01:32:12;3.67;;;2.08;;
13455;SDS011;6800;50.940;6.940;2023-07-16T01:36:14;3.15;;;2.00;;
13455;SDS011;6800;50.940;6.940;2023-07-16T01:40:19;5.35;;;2.13;;
13455;SDS011;6800;50.940;6.940;2023-07-16T01:44:20;3.30;;;2.20;;
13455;SDS011;6800;50.940;6.940;2023-07-16T01:48:35;5.30;;;2.50;;
13455;SDS011;6800;50.940;6.940;2023-07-16T01:52:38;5.82;;;2.90;;
13455;SDS011;6800;50.940;6.940;2023-07-16T01:56:39;3.55;;;1.92;;
13455;SDS011;6800;50.940;6.940;2023-07-16T02:00:40;3.85;;;1.90;;
13455;SDS011;6800;50.940;6.940;2023-07-16T02:04:42;4.53;;;1.80;;
13455;SDS011;6800;50.940;6.940;2023-07-16T02:08:43;2.30;;;1.63;;
13455;SDS011;6800;50.940;6.940;2023-07-16T02:12:50;4.18;;;1.80;;
13455;SDS011;6800;50.940;6.940;2023-07-16T02:16:52;3.53;;;1.80;;
13455;SDS011;6800;50.940;6.940;2023-07-16T02:20:53;4.70;;;2.00;;
13455;SDS011;6800;50.940;6.940;2023-07-16T02:24:55;4.63;;;2.50;;
13455;SDS011;6800;50.940;6.940;2023-07-16T02:28:56;4.47;;;2.13;;
13455;SDS011;6800;50.940;6.940;2023-07-16T02:32:58;3.92;;;2.00;;
13455;SDS011;6800;50.940;6.940;2023-07-16T02:37:00;3.47;;;1.70;;
13455;SDS011;6800;50.940;6.940;2023-07-16T02:41:01;4.85;;;2.15;;
13455;SDS011;6800;50.940;6.940;2023-07-16T02:45:03;4.53;;;2.15;;
13455;SDS011;6800;50.940;6.940;2023-07-16T02:49:05;5.32;;;1.83;;
13455;SDS011;6800;50.940;6.940;2023-07-16T02:53:06;5.63;;;1.60;;
13455;SDS011;6800;50.940;6.940;2023-07-16T02:57:08;4.00;;;2.50;;
13455;SDS011;6800;50.940;6.940;2023-07-16T03:01:10;5.75;;;2.42;;
13455;SDS011;6800;50.940;6.940;2023-07-16T03:05:13;5.97;;;4.75;;
13455;SDS011;6800;50.940;6.940;2023-07-16T03:09:14;3.30;;;1.98;;
13455;SDS011;6800;50.940;6.940;2023-07-16T03:13:15;6.03;;;2.80;;
13455;SDS011;6800;50.940;6.940;2023-07-16T03:17:17;5.53;;;2.05;;
13455;SDS011;6800;50.940;6.940;2023-07-16T03:21:19;5.43;;;2.50;;
13455;SDS011;6800;50.940;6.940;2023-07-16T03:25:20;3.65;;;1.73;;
13455;SDS011;6800;50.940;6.940;2023-07-16T03:29:21;3.95;;;1.83;;
13455;SDS011;6800;50.940;6.940;2023-07-16T03:33:23;3.05;;;1.58;;
13455;SDS011;6800;50.940;6.940;2023-07-16T03:37:24;3.10;;;1.60;;
13455;SDS011;6800;50.940;6.940;2023-07-16T03:41:26;3.05;;;1.90;;
13455;SDS011;6800;50.940;6.940;2023-07-16T03:45:27;3.38;;;1.65;;
13455;SDS011;6800;50.940;6.940;2023-07-16T03:49:29;3.67;;;1.63;;
13455;SDS011;6800;50.940;6.940;2023-07-16T03:53:30;2.88;;;1.65;;
13455;SDS011;6800;50.940;6.940;2023-07-16T03:57:31;3.47;;;1.80;;
13455;SDS011;6800;50.940;6.940;2023-07-16T04:01:33;3.65;;;1.70;;
13455;SDS011;6800;50.940;6.940;2023-07-16T04:05:34;4.25;;;1.67;;
13455;SDS011;6800;50.940;6.940;2023-07-16T04:09:39;3.92;;;1.95;;
13455;SDS011;6800;50.940;6.940;2023-07-16T04:13:40;5.13;;;2.00;;
13455;SDS011;6800;50.940;6.940;2023-07-16T04:17:42;3.92;;;2.17;;
13455;SDS011;6800;50.940;6.940;2023-07-16T04:21:43;3.75;;;2.05;;
13455;SDS011;6800;50.940;6.940;2023-07-16T04:25:44;3.65;;;1.88;;
13455;SDS011;6800;50.940;6.940;2023-07-16T04:29:46;4.63;;;2.05;;
13455;SDS011;6800;50.940;6.940;2023-07-16T04:33:47;3.05;;;1.70;;
13455;SDS011;6800;50.940;6.940;2023-07-16T04:37:49;4.13;;;1.88;;
13455;SDS011;6800;50.940;6.940;2023-07-16T04:41:50;4.38;;;1.70;;
13455;SDS011;6800;50.940;6.940;2023-07-16T04:45:51;7.30;;;2.15;;
13455;SDS011;6800;50.940;6.940;2023-07-16T04:49:53;6.90;;;2.17;;
13455;SDS011;6800;50.940;6.940;2023-07-16T04:53:54;6.00;;;2.17;;
13455;SDS011;6800;50.940;6.940;2023-07-16T04:57:56;3.15;;;1.45;;
13455;SDS011;6800;50.940;6.940;2023-07-16T05:01:58;5.78;;;2.13;;
13455;SDS011;6800;50.940;6.940;2023-07-16T05:05:59;5.53;;;1.88;;
13455;SDS011;6800;50.940;6.940;2023-07-16T05:10:01;4.93;;;2.10;;
13455;SDS011;6800;50.940;6.940;2023-07-16T05:14:02;3.35;;;1.73;;
13455;SDS011;6800;50.940;6.940;2023-07-16T05:18:04;4.85;;;2.08;;
13455;SDS011;6800;50.940;6.940;2023-07-16T05:22:06;3.97;;;2.15;;
13455;SDS011;6800;50.940;6.940;2023-07-16T05:26:07;5.45;;;2.58;;
13455;SDS011;6800;50.940;6.940;2023-07-16T05:30:09;5.55;;;2.00;;
13455;SDS011;6800;50.940;6.940;2023-07-16T05:34:11;4.88;;;2.22;;
13455;SDS011;6800;50.940;6.940;2023-07-16T05:38:12;4.88;;;2.10;;
13455;SDS011;6800;50.940;6.940;2023-07-16T05:42:13;7.53;;;2.10;;
13455;SDS011;6800;50.940;6.940;2023-07-16T05:46:15;5.05;;;2.30;;
13455;SDS011;6800;50.940;6.940;2023-07-16T05:50:17;5.10;;;2.35;;
13455;SDS011;6800;50.940;6.940;2023-07-16T05:54:18;5.13;;;3.72;;
13455;SDS011;6800;50.940;6.940;2023-07-16T05:58:20;6.05;;;3.20;;
13455;SDS011;6800;50.940;6.940;2023-07-16T06:02:21;4.68;;;2.42;;
13455;SDS011;6800;50.940;6.940;2023-07-16T06:06:22;6.40;;;3.08;;
13455;SDS011;6800;50.940;6.940;2023-07-16T06:10:24;7.03;;;2.83;;
13455;SDS011;6800;50.940;6.940;2023-07-16T06:14:25;5.63;;;3.00;;
13455;SDS011;6800;50.940;6.940;2023-07-16T06:18:27;5.10;;;2.95;;
13455;SDS011;6800;50.940;6.940;2023-07-16T06:22:28;8.07;;;3.95;;
13455;SDS011;6800;50.940;6.940;2023-07-16T06:26:30;5.97;;;3.40;;
13455;SDS011;6800;50.940;6.940;2023-07-16T06:30:31;5.63;;;2.75;;
13455;SDS011;6800;50.940;6.940;2023-07-16T06:34:33;5.22;;;3.50;;
13455;SDS011;6800;50.940;6.940;2023-07-16T06:38:35;5.78;;;3.10;;
13455;SDS011;6800;50.940;6.940;2023-07-16T06:42:36;7.18;;;3.72;;
13455;SDS011;6800;50.940;6.940;2023-07-16T06:46:38;5.20;;;3.20;;
13455;SDS011;6800;50.940;6.940;2023-07-16T06:50:39;5.88;;;3.00;;
13455;SDS011;6800;50.940;6.940;2023-07-16T06:54:41;5.07;;;3.33;;
13455;SDS011;6800;50.940;6.940;2023-07-16T06:58:44;4.38;;;2.92;;
13455;SDS011;6800;50.940;6.940;2023-07-16T07:02:45;5.53;;;2.88;;
13455;SDS011;6800;50.940;6.940;2023-07-16T07:06:48;4.28;;;2.90;;
13455;SDS011;6800;50.940;6.940;2023-07-16T07:10:49;4.18;;;2.85;;
13455;SDS011;6800;50.940;6.940;2023-07-16T07:14:51;6.88;;;3.00;;
13455;SDS011;6800;50.940;6.940;2023-07-16T07:18:52;3.70;;;2.65;;
13455;SDS011;6800;50.940;6.940;2023-07-16T07:22:54;4.65;;;3.08;;
13455;SDS011;6800;50.940;6.940;2023-07-16T07:26:55;5.68;;;3.10;;
13455;SDS011;6800;50.940;6.940;2023-07-16T07:30:57;4.68;;;2.92;;
13455;SDS011;6800;50.940;6.940;2023-07-16T07:34:58;6.53;;;2.85;;
13455;SDS011;6800;50.940;6.940;2023-07-16T07:39:03;5.45;;;3.13;;
13455;SDS011;6800;50.940;6.940;2023-07-16T07:43:05;5.30;;;3.60;;
13455;SDS011;6800;50.940;6.940;2023-07-16T07:47:06;5.10;;;3.05;;
13455;SDS011;6800;50.940;6.940;2023-07-16T07:51:09;4.68;;;3.35;;
13455;SDS011;6800;50.940;6.940;2023-07-16T07:55:11;5.28;;;3.15;;
13455;SDS011;6800;50.940;6.940;2023-07-16T07:59:12;4.63;;;3.05;;
13455;SDS011;6800;50.940;6.940;2023-07-16T08:03:14;4.68;;;3.50;;
13455;SDS011;6800;50.940;6.940;2023-07-16T08:07:15;3.42;;;3.03;;
13455;SDS011;6800;50.940;6.940;2023-07-16T08:11:17;4.82;;;3.60;;
13455;SDS011;6800;50.940;6.940;2023-07-16T08:15:18;4.15;;;3.20;;
13455;SDS011;6800;50.940;6.940;2023-07-16T08:19:20;5.88;;;3.85;;
13455;SDS011;6800;50.940;6.940;2023-07-16T08:23:21;5.72;;;3.53;;
13455;SDS011;6800;50.940;6.940;2023-07-16T08:27:23;4.50;;;3.60;;
13455;SDS011;6800;50.940;6.940;2023-07-16T08:31:25;4.80;;;3.45;;
13455;SDS011;6800;50.940;6.940;2023-07-16T08:35:26;5.20;;;3.75;;
13455;SDS011;6800;50.940;6.940;2023-07-16T08:39:28;5.15;;;3.50;;
13455;SDS011;6800;50.940;6.940;2023-07-16T08:43:29;5.35;;;3.75;;
13455;SDS011;6800;50.940;6.940;2023-07-16T08:47:34;4.28;;;3.60;;
13455;SDS011;6800;50.940;6.940;2023-07-16T08:51:36;4.85;;;3.38;;
13455;SDS011;6800;50.940;6.940;2023-07-16T08:55:38;5.43;;;3.55;;
13455;SDS011;6800;50.940;6.940;2023-07-16T08:59:40;5.72;;;3.30;;
13455;SDS011;6800;50.940;6.940;2023-07-16T09:03:42;5.25;;;3.40;;
13455;SDS011;6800;50.940;6.940;2023-07-16T09:07:43;4.63;;;3.25;;
13455;SDS011;6800;50.940;6.940;2023-07-16T09:11:48;4.72;;;3.38;;
13455;SDS011;6800;50.940;6.940;2023-07-16T09:15:50;3.72;;;3.13;;
13455;SDS011;6800;50.940;6.940;2023-07-16T09:19:52;2.80;;;2.60;;
13455;SDS011;6800;50.940;6.940;2023-07-16T09:23:56;4.07;;;3.33;;
13455;SDS011;6800;50.940;6.940;2023-07-16T09:27:57;5.18;;;3.20;;
13455;SDS011;6800;50.940;6.940;2023-07-16T09:32:02;4.85;;;3.53;;
13455;SDS011;6800;50.940;6.940;2023-07-16T09:36:04;4.97;;;3.30;;
13455;SDS011;6800;50.940;6.940;2023-07-16T09:40:06;6.43;;;2.90;;
13455;SDS011;6800;50.940;6.940;2023-07-16T09:44:10;3.70;;;3.10;;
13455;SDS011;6800;50.940;6.940;2023-07-16T09:48:13;3.40;;;2.72;;
13455;SDS011;6800;50.940;6.940;2023-07-16T09:52:15;3.20;;;2.38;;
13455;SDS011;6800;50.940;6.940;2023-07-16T09:56:17;4.55;;;2.45;;
13455;SDS011;6800;50.940;6.940;2023-07-16T10:00:21;4.18;;;2.72;;
13455;SDS011;6800;50.940;6.940;2023-07-16T10:04:24;2.42;;;2.20;;
13455;SDS011;6800;50.940;6.940;2023-07-16T10:08:26;3.88;;;2.70;;
13455;SDS011;6800;50.940;6.940;2023-07-16T10:12:38;3.67;;;2.53;;
13455;SDS011;6800;50.940;6.940;2023-07-16T10:16:42;3.33;;;2.55;;
13455;SDS011;6800;50.940;6.940;2023-07-16T10:20:49;4.25;;;2.67;;
13455;SDS011;6800;50.940;6.940;2023-07-16T10:24:51;3.75;;;2.83;;
13455;SDS011;6800;50.940;6.940;2023-07-16T10:28:54;3.50;;;2.55;;
13455;SDS011;6800;50.940;6.940;2023-07-16T10:32:55;5.00;;;2.40;;
13455;SDS011;6800;50.940;6.940;2023-07-16T10:36:57;4.18;;;2.40;;
13455;SDS011;6800;50.940;6.940;2023-07-16T10:40:58;3.55;;;2.53;;
13455;SDS011;6800;50.940;6.940;2023-07-16T10:45:01;6.70;;;2.97;;
13455;SDS011;6800;50.940;6.940;2023-07-16T10:49:04;4.50;;;2.67;;
13455;SDS011;6800;50.940;6.940;2023-07-16T10:53:05;3.70;;;2.35;;
13455;SDS011;6800;50.940;6.940;2023-07-16T10:57:07;4.82;;;3.30;;
13455;SDS011;6800;50.940;6.940;2023-07-16T11:01:08;3.92;;;2.72;;
13455;SDS011;6800;50.940;6.940;2023-07-16T11:05:10;4.13;;;2.97;;
13455;SDS011;6800;50.940;6.940;2023-07-16T11:09:12;4.57;;;3.13;;
13455;SDS011;6800;50.940;6.940;2023-07-16T11:13:14;5.07;;;3.55;;
13455;SDS011;6800;50.940;6.940;2023-07-16T11:17:15;4.68;;;3.20;;
13455;SDS011;6800;50.940;6.940;2023-07-16T11:21:20;4.28;;;2.65;;
13455;SDS011;6800;50.940;6.940;2023-07-16T11:25:23;4.38;;;2.80;;
13455;SDS011;6800;50.940;6.940;2023-07-16T11:29:25;5.28;;;2.90;;
13455;SDS011;6800;50.940;6.940;2023-07-16T11:33:34;2.72;;;2.53;;
13455;SDS011;6800;50.940;6.940;2023-07-16T11:37:36;5.03;;;3.45;;
13455;SDS011;6800;50.940;6.940;2023-07-16T11:41:37;7.00;;;3.90;;
13455;SDS011;6800;50.940;6.940;2023-07-16T11:45:39;3.80;;;3.35;;
13455;SDS011;6800;50.940;6.940;2023-07-16T11:49:41;4.70;;;3.10;;
13455;SDS011;6800;50.940;6.940;2023-07-16T11:53:42;6.28;;;3.47;;
13455;SDS011;6800;50.940;6.940;2023-07-16T11:57:43;5.40;;;2.83;;
13455;SDS011;6800;50.940;6.940;2023-07-16T12:01:45;3.75;;;3.00;;
13455;SDS011;6800;50.940;6.940;2023-07-16T12:05:47;4.70;;;3.15;;
13455;SDS011;6800;50.940;6.940;2023-07-16T12:09:54;5.07;;;3.40;;
13455;SDS011;6800;50.940;6.940;2023-07-16T12:13:55;4.00;;;2.97;;
13455;SDS011;6800;50.940;6.940;2023-07-16T12:17:57;6.25;;;3.55;;
13455;SDS011;6800;50.940;6.940;2023-07-16T12:21:58;4.63;;;3.40;;
13455;SDS011;6800;50.940;6.940;2023-07-16T12:26:00;3.38;;;2.53;;
13455;SDS011;6800;50.940;6.940;2023-07-16T12:30:02;4.38;;;3.25;;
13455;SDS011;6800;50.940;6.940;2023-07-16T12:34:03;3.92;;;2.88;;
13455;SDS011;6800;50.940;6.940;2023-07-16T12:38:05;3.22;;;2.85;;
13455;SDS011;6800;50.940;6.940;2023-07-16T12:42:07;3.88;;;2.83;;
13455;SDS011;6800;50.940;6.940;2023-07-16T12:46:08;4.57;;;3.03;;
13455;SDS011;6800;50.940;6.940;2023-07-16T12:50:10;5.03;;;3.13;;
13455;SDS011;6800;50.940;6.940;2023-07-16T12:54:11;4.45;;;3.10;;
13455;SDS011;6800;50.940;6.940;2023-07-16T12:58:13;4.20;;;2.95;;
13455;SDS011;6800;50.940;6.940;2023-07-16T13:02:14;3.80;;;3.13;;
13455;SDS011;6800;50.940;6.940;2023-07-16T13:06:15;4.72;;;3.00;;
13455;SDS011;6800;50.940;6.940;2023-07-16T13:10:17;5.90;;;3.78;;
13455;SDS011;6800;50.940;6.940;2023-07-16T13:14:24;5.10;;;3.58;;
13455;SDS011;6800;50.940;6.940;2023-07-16T13:18:27;5.30;;;3.10;;
13455;SDS011;6800;50.940;6.940;2023-07-16T13:22:28;4.35;;;3.08;;
13455;SDS011;6800;50.940;6.940;2023-07-16T13:26:30;4.68;;;3.58;;
13455;SDS011;6800;50.940;6.940;2023-07-16T13:30:31;3.92;;;3.10;;
13455;SDS011;6800;50.940;6.940;2023-07-16T13:34:33;4.75;;;3.65;;
13455;SDS011;6800;50.940;6.940;2023-07-16T13:38:34;4.35;;;3.33;;
13455;SDS011;6800;50.940;6.940;2023-07-16T13:42:36;4.93;;;2.92;;
13455;SDS011;6800;50.940;6.940;2023-07-16T13:46:37;4.88;;;2.97;;
13455;SDS011;6800;50.940;6.940;2023-07-16T13:50:39;3.97;;;3.33;;
13455;SDS011;6800;50.940;6.940;2023-07-16T13:54:40;4.07;;;3.10;;
13455;SDS011;6800;50.940;6.940;2023-07-16T13:58:42;5.82;;;3.50;;
13455;SDS011;6800;50.940;6.940;2023-07-16T14:02:44;4.47;;;3.03;;
13455;SDS011;6800;50.940;6.940;2023-07-16T14:06:45;5.53;;;3.40;;
13455;SDS011;6800;50.940;6.940;2023-07-16T14:10:47;3.58;;;2.45;;
13455;SDS011;6800;50.940;6.940;2023-07-16T14:14:48;6.35;;;4.80;;
13455;SDS011;6800;50.940;6.940;2023-07-16T14:18:50;5.00;;;3.65;;
13455;SDS011;6800;50.940;6.940;2023-07-16T14:22:53;5.32;;;3.30;;
13455;SDS011;6800;50.940;6.940;2023-07-16T14:26:57;5.20;;;3.05;;
13455;SDS011;6800;50.940;6.940;2023-07-16T14:31:01;4.50;;;2.50;;
13455;SDS011;6800;50.940;6.940;2023-07-16T14:35:03;4.00;;;3.10;;
13455;SDS011;6800;50.940;6.940;2023-07-16T14:39:05;4.32;;;2.70;;
13455;SDS011;6800;50.940;6.940;2023-07-16T14:43:06;4.78;;;3.00;;
13455;SDS011;6800;50.940;6.940;2023-07-16T14:47:08;5.88;;;3.20;;
13455;SDS011;6800;50.940;6.940;2023-07-16T14:51:10;4.03;;;2.72;;
13455;SDS011;6800;50.940;6.940;2023-07-16T14:55:12;4.95;;;3.08;;
13455;SDS011;6800;50.940;6.940;2023-07-16T14:59:13;3.40;;;3.00;;
13455;SDS011;6800;50.940;6.940;2023-07-16T15:03:15;6.78;;;2.80;;
13455;SDS011;6800;50.940;6.940;2023-07-16T15:07:16;3.80;;;3.05;;
13455;SDS011;6800;50.940;6.940;2023-07-16T15:11:18;5.40;;;3.63;;
13455;SDS011;6800;50.940;6.940;2023-07-16T15:15:19;5.05;;;3.75;;
13455;SDS011;6800;50.940;6.940;2023-07-16T15:19:21;8.10;;;5.50;;
13455;SDS011;6800;50.940;6.940;2023-07-16T15:23:22;5.75;;;3.58;;
13455;SDS011;6800;50.940;6.940;2023-07-16T15:27:24;4.93;;;3.15;;
13455;SDS011;6800;50.940;6.940;2023-07-16T15:31:26;3.92;;;2.92;;
13455;SDS011;6800;50.940;6.940;2023-07-16T15:35:30;3.78;;;2.65;;
13455;SDS011;6800;50.940;6.940;2023-07-16T15:39:32;3.13;;;2.80;;
13455;SDS011;6800;50.940;6.940;2023-07-16T15:43:33;3.58;;;2.47;;
13455;SDS011;6800;50.940;6.940;2023-07-16T15:47:35;3.47;;;2.83;;
13455;SDS011;6800;50.940;6.940;2023-07-16T15:51:36;4.75;;;3.05;;
13455;SDS011;6800;50.940;6.940;2023-07-16T15:55:41;4.60;;;3.22;;
13455;SDS011;6800;50.940;6.940;2023-07-16T15:59:43;7.40;;;4.38;;
13455;SDS011;6800;50.940;6.940;2023-07-16T16:03:45;4.78;;;3.58;;
13455;SDS011;6800;50.940;6.940;2023-07-16T16:12:12;4.45;;;4.10;;
13455;SDS011;6800;50.940;6.940;2023-07-16T16:16:13;3.83;;;2.80;;
13455;SDS011;6800;50.940;6.940;2023-07-16T16:20:15;5.90;;;3.20;;
13455;SDS011;6800;50.940;6.940;2023-07-16T16:24:17;6.05;;;3.22;;
13455;SDS011;6800;50.940;6.940;2023-07-16T16:28:18;3.47;;;2.78;;
13455;SDS011;6800;50.940;6.940;2023-07-16T16:32:20;7.47;;;3.45;;
13455;SDS011;6800;50.940;6.940;2023-07-16T16:36:22;3.70;;;3.00;;
13455;SDS011;6800;50.940;6.940;2023-07-16T16:40:23;4.10;;;3.20;;
13455;SDS011;6800;50.940;6.940;2023-07-16T16:44:25;5.60;;;3.05;;
13455;SDS011;6800;50.940;6.940;2023-07-16T16:48:26;5.05;;;3.33;;
13455;SDS011;6800;50.940;6.940;2023-07-16T16:52:29;3.88;;;3.10;;
13455;SDS011;6800;50.940;6.940;2023-07-16T16:56:30;5.85;;;3.40;;
13455;SDS011;6800;50.940;6.940;2023-07-16T17:00:31;7.43;;;3.72;;
13455;SDS011;6800;50.940;6.940;2023-07-16T17:04:36;4.75;;;3.85;;
13455;SDS011;6800;50.940;6.940;2023-07-16T17:08:39;5.43;;;4.25;;
13455;SDS011;6800;50.940;6.940;2023-07-16T17:12:41;6.30;;;4.78;;
13455;SDS011;6800;50.940;6.940;2023-07-16T17:16:47;5.63;;;3.65;;
13455;SDS011;6800;50.940;6.940;2023-07-16T17:20:48;4.90;;;3.33;;
13455;SDS011;6800;50.940;6.940;2023-07-16T17:24:50;5.30;;;3.80;;
13455;SDS011;6800;50.940;6.940;2023-07-16T17:28:51;5.53;;;3.90;;
13455;SDS011;6800;50.940;6.940;2023-07-16T17:32:53;5.35;;;3.50;;
13455;SDS011;6800;50.940;6.940;2023-07-16T17:36:55;6.10;;;3.75;;
13455;SDS011;6800;50.940;6.940;2023-07-16T17:40:56;6.72;;;3.90;;
13455;SDS011;6800;50.940;6.940;2023-07-16T17:44:57;6.90;;;4.53;;
13455;SDS011;6800;50.940;6.940;2023-07-16T17:48:59;5.43;;;3.80;;
13455;SDS011;6800;50.940;6.940;2023-07-16T17:53:02;6.00;;;3.42;;
13455;SDS011;6800;50.940;6.940;2023-07-16T17:57:04;5.22;;;3.38;;
13455;SDS011;6800;50.940;6.940;2023-07-16T18:01:06;6.80;;;3.83;;
13455;SDS011;6800;50.940;6.940;2023-07-16T18:05:08;5.78;;;3.97;;
13455;SDS011;6800;50.940;6.940;2023-07-16T18:09:11;4.63;;;3.22;;
13455;SDS011;6800;50.940;6.940;2023-07-16T18:13:15;5.15;;;3.88;;
13455;SDS011;6800;50.940;6.940;2023-07-16T18:17:17;7.57;;;4.18;;
13455;SDS011;6800;50.940;6.940;2023-07-16T18:21:21;8.25;;;5.28;;
13455;SDS011;6800;50.940;6.940;2023-07-16T18:25:31;4.30;;;3.58;;
13455;SDS011;6800;50.940;6.940;2023-07-16T18:29:33;6.55;;;4.18;;
13455;SDS011;6800;50.940;6.940;2023-07-16T18:33:34;6.65;;;5.25;;
13455;SDS011;6800;50.940;6.940;2023-07-16T18:37:36;6.50;;;4.05;;
13455;SDS011;6800;50.940;6.940;2023-07-16T18:41:37;5.35;;;3.70;;
13455;SDS011;6800;50.940;6.940;2023-07-16T18:45:39;9.45;;;4.35;;
13455;SDS011;6800;50.940;6.940;2023-07-16T18:49:40;6.35;;;3.78;;
13455;SDS011;6800;50.940;6.940;2023-07-16T18:53:41;6.32;;;4.25;;
13455;SDS011;6800;50.940;6.940;2023-07-16T18:57:43;6.78;;;3.97;;
13455;SDS011;6800;50.940;6.940;2023-07-16T19:01:45;5.25;;;4.15;;
13455;SDS011;6800;50.940;6.940;2023-07-16T19:05:46;5.43;;;3.20;;
13455;SDS011;6800;50.940;6.940;2023-07-16T19:09:48;7.20;;;3.67;;
13455;SDS011;6800;50.940;6.940;2023-07-16T19:13:49;5.57;;;3.30;;
13455;SDS011;6800;50.940;6.940;2023-07-16T19:17:50;6.05;;;3.72;;
13455;SDS011;6800;50.940;6.940;2023-07-16T19:21:52;4.93;;;3.15;;
13455;SDS011;6800;50.940;6.940;2023-07-16T19:25:53;7.85;;;5.55;;
13455;SDS011;6800;50.940;6.940;2023-07-16T19:29:55;6.80;;;5.72;;
13455;SDS011;6800;50.940;6.940;2023-07-16T19:33:56;5.50;;;3.97;;
13455;SDS011;6800;50.940;6.940;2023-07-16T19:37:57;5.80;;;3.60;;
13455;SDS011;6800;50.940;6.940;2023-07-16T19:41:59;6.65;;;3.40;;
13455;SDS011;6800;50.940;6.940;2023-07-16T19:46:01;6.82;;;3.80;;
13455;SDS011;6800;50.940;6.940;2023-07-16T19:50:05;6.53;;;3.70;;
13455;SDS011;6800;50.940;6.940;2023-07-16T19:54:08;5.80;;;3.63;;
13455;SDS011;6800;50.940;6.940;2023-07-16T19:58:09;6.95;;;3.50;;
13455;SDS011;6800;50.940;6.940;2023-07-16T20:02:11;5.00;;;3.13;;
13455;SDS011;6800;50.940;6.940;2023-07-16T20:06:12;5.90;;;3.95;;
13455;SDS011;6800;50.940;6.940;2023-07-16T20:10:14;5.72;;;3.33;;
13455;SDS011;6800;50.940;6.940;2023-07-16T20:14:16;5.72;;;3.25;;
13455;SDS011;6800;50.940;6.940;2023-07-16T20:18:17;5.50;;;3.08;;
13455;SDS011;6800;50.940;6.940;2023-07-16T20:22:19;4.68;;;3.30;;
13455;SDS011;6800;50.940;6.940;2023-07-16T20:26:22;5.32;;;3.20;;
13455;SDS011;6800;50.940;6.940;2023-07-16T20:30:25;6.57;;;4.38;;
13455;SDS011;6800;50.940;6.940;2023-07-16T20:34:27;5.43;;;3.40;;
13455;SDS011;6800;50.940;6.940;2023-07-16T20:38:28;4.50;;;3.50;;
13455;SDS011;6800;50.940;6.940;2023-07-16T20:42:30;7.72;;;3.53;;
13455;SDS011;6800;50.940;6.940;2023-07-16T20:46:31;5.00;;;3.35;;
13455;SDS011;6800;50.940;6.940;2023-07-16T20:50:32;5.95;;;3.35;;
13455;SDS011;6800;50.940;6.940;2023-07-16T20:54:35;5.90;;;3.58;;
13455;SDS011;6800;50.940;6.940;2023-07-16T20:58:37;5.13;;;2.97;;
13455;SDS011;6800;50.940;6.940;2023-07-16T21:02:38;6.10;;;3.42;;
13455;SDS011;6800;50.940;6.940;2023-07-16T21:06:40;5.75;;;3.53;;
13455;SDS011;6800;50.940;6.940;2023-07-16T21:10:41;7.45;;;3.50;;
13455;SDS011;6800;50.940;6.940;2023-07-16T21:14:43;5.93;;;3.30;;
13455;SDS011;6800;50.940;6.940;2023-07-16T21:18:45;4.57;;;2.97;;
13455;SDS011;6800;50.940;6.940;2023-07-16T21:22:46;4.22;;;2.72;;
13455;SDS011;6800;50.940;6.940;2023-07-16T21:26:48;5.88;;;3.30;;
13455;SDS011;6800;50.940;6.940;2023-07-16T21:30:49;6.00;;;3.35;;
13455;SDS011;6800;50.940;6.940;2023-07-16T21:34:50;5.07;;;2.90;;
13455;SDS011;6800;50.940;6.940;2023-07-16T21:38:52;6.68;;;3.28;;
13455;SDS011;6800;50.940;6.940;2023-07-16T21:42:53;4.20;;;2.70;;
13455;SDS011;6800;50.940;6.940;2023-07-16T21:46:55;6.05;;;3.47;;
13455;SDS011;6800;50.940;6.940;2023-07-16T21:50:56;5.60;;;2.65;;
13455;SDS011;6800;50.940;6.940;2023-07-16T21:54:57;4.43;;;3.10;;
13455;SDS011;6800;50.940;6.940;2023-07-16T21:58:59;7.35;;;3.88;;
13455;SDS011;6800;50.940;6.940;2023-07-16T22:03:00;6.60;;;3.20;;
13455;SDS011;6800;50.940;6.940;2023-07-16T22:07:02;5.60;;;3.08;;
13455;SDS011;6800;50.940;6.940;2023-07-16T22:11:04;6.07;;;3.20;;
13455;SDS011;6800;50.940;6.940;2023-07-16T22:15:06;5.97;;;3.00;;
13455;SDS011;6800;50.940;6.940;2023-07-16T22:19:08;7.28;;;3.72;;
13455;SDS011;6800;50.940;6.940;2023-07-16T22:23:29;8.75;;;3.60;;
13455;SDS011;6800;50.940;6.940;2023-07-16T22:27:31;7.57;;;3.83;;
13455;SDS011;6800;50.940;6.940;2023-07-16T22:31:32;6.50;;;3.40;;
13455;SDS011;6800;50.940;6.940;2023-07-16T22:35:34;6.35;;;3.30;;
13455;SDS011;6800;50.940;6.940;2023-07-16T22:39:35;5.13;;;3.00;;
13455;SDS011;6800;50.940;6.940;2023-07-16T22:43:37;5.38;;;3.00;;
13455;SDS011;6800;50.940;6.940;2023-07-16T22:47:38;6.50;;;3.47;;
13455;SDS011;6800;50.940;6.940;2023-07-16T22:51:40;4.78;;;2.97;;
13455;SDS011;6800;50.940;6.940;2023-07-16T22:55:41;7.60;;;3.40;;
13455;SDS011;6800;50.940;6.940;2023-07-16T22:59:45;6.07;;;3.20;;
13455;SDS011;6800;50.940;6.940;2023-07-16T23:03:46;5.07;;;2.97;;
13455;SDS011;6800;50.940;6.940;2023-07-16T23:07:48;6.50;;;3.35;;
13455;SDS011;6800;50.940;6.940;2023-07-16T23:11:49;4.60;;;2.83;;
13455;SDS011;6800;50.940;6.940;2023-07-16T23:15:51;5.53;;;3.30;;
13455;SDS011;6800;50.940;6.940;2023-07-16T23:19:53;6.93;;;3.55;;
13455;SDS011;6800;50.940;6.940;2023-07-16T23:23:54;6.18;;;3.33;;
13455;SDS011;6800;50.940;6.940;2023-07-16T23:27:55;5.90;;;2.80;;
13455;SDS011;6800;50.940;6.940;2023-07-16T23:31:57;6.40;;;3.15;;
13455;SDS011;6800;50.940;6.940;2023-07-16T23:35:58;7.88;;;3.65;;
13455;SDS011;6800;50.940;6.940;2023-07-16T23:40:00;7.63;;;3.00;;
13455;SDS011;6800;50.940;6.940;2023-07-16T23:44:02;7.32;;;3.30;;
13455;SDS011;6800;50.940;6.940;2023-07-16T23:48:04;3.80;;;2.53;;
13455;SDS011;6800;50.940;6.940;2023-07-16T23:52:05;5.95;;;3.38;;
13455;SDS011;6800;50.940;6.940;2023-07-16T23:56:07;5.68;;;3.03;;
